createdAt,value
2018-06-16T00:02:04.283Z,55.5
2018-06-16T00:07:04.801Z,55.5
2018-06-16T00:12:04.230Z,55.5
2018-06-16T00:17:04.763Z,55.5
2018-06-16T00:22:04.443Z,55.6
2018-06-16T00:27:05.031Z,55.5
2018-06-16T00:32:08.882Z,55.5
2018-06-16T00:37:04.969Z,55.5
2018-06-16T00:42:04.798Z,55.5
2018-06-16T00:47:04.726Z,55.5
2018-06-16T00:52:04.327Z,55.5
2018-06-16T00:57:05.262Z,55.4
2018-06-16T01:02:04.987Z,55.4
2018-06-16T01:07:04.902Z,55.3
2018-06-16T01:12:04.433Z,55.4
2018-06-16T01:17:04.568Z,55.5
2018-06-16T01:22:05.120Z,55.4
2018-06-16T01:27:04.957Z,55.4
2018-06-16T01:32:04.825Z,55.4
2018-06-16T01:37:05.100Z,55.3
2018-06-16T01:42:04.640Z,55.3
2018-06-16T01:47:04.538Z,55.4
2018-06-16T01:52:04.828Z,55.3
2018-06-16T01:57:04.526Z,55.3
2018-06-16T02:02:04.423Z,55.2
2018-06-16T02:07:05.029Z,55.3
2018-06-16T02:12:04.839Z,55.3
2018-06-16T02:17:04.642Z,55.2
2018-06-16T02:22:04.632Z,55.4
2018-06-16T02:27:05.059Z,55.3
2018-06-16T02:32:05.026Z,55.1
2018-06-16T02:37:04.239Z,55.0
2018-06-16T02:42:04.799Z,55.1
2018-06-16T02:47:19.878Z,55.1
2018-06-16T02:52:04.190Z,55.3
2018-06-16T02:57:04.570Z,55.2
2018-06-16T03:02:19.611Z,55.0
2018-06-16T03:07:04.518Z,55.0
2018-06-16T03:12:04.597Z,55.0
2018-06-16T03:17:24.200Z,55.1
2018-06-16T03:22:04.681Z,55.3
2018-06-16T03:27:04.408Z,55.3
2018-06-16T03:32:22.481Z,55.1
2018-06-16T03:37:04.775Z,55.1
2018-06-16T03:42:04.396Z,55.1
2018-06-16T03:47:21.536Z,55.2
2018-06-16T03:52:04.479Z,55.0
2018-06-16T03:57:04.287Z,54.9
2018-06-16T04:02:21.587Z,54.8
2018-06-16T04:07:04.782Z,54.7
2018-06-16T04:12:04.645Z,54.7
2018-06-16T04:17:20.074Z,54.7
2018-06-16T04:22:04.695Z,53.1
2018-06-16T04:27:04.684Z,52.7
2018-06-16T04:32:21.804Z,53.2
2018-06-16T04:37:05.135Z,53.4
2018-06-16T04:42:04.582Z,53.6
2018-06-16T04:47:20.808Z,53.7
2018-06-16T04:52:04.496Z,53.7
2018-06-16T04:57:05.234Z,53.7
2018-06-16T05:02:21.154Z,53.7
2018-06-16T05:07:05.130Z,53.9
2018-06-16T05:12:04.698Z,53.9
2018-06-16T05:17:21.766Z,53.9
2018-06-16T05:22:04.566Z,53.9
2018-06-16T05:27:04.575Z,53.9
2018-06-16T05:32:21.321Z,53.9
2018-06-16T05:37:05.090Z,53.9
2018-06-16T05:42:04.887Z,54.0
2018-06-16T05:47:21.035Z,54.1
2018-06-16T05:52:04.927Z,54.1
2018-06-16T05:57:04.294Z,54.1
2018-06-16T06:02:22.110Z,54.3
2018-06-16T06:07:04.944Z,54.3
2018-06-16T06:12:04.564Z,54.3
2018-06-16T06:17:20.833Z,54.4
2018-06-16T06:22:04.479Z,54.5
2018-06-16T06:27:05.220Z,54.5
2018-06-16T06:32:22.880Z,54.7
2018-06-16T06:37:04.562Z,54.6
2018-06-16T06:42:05.065Z,54.7
2018-06-16T06:47:23.880Z,54.9
2018-06-16T06:52:04.202Z,54.9
2018-06-16T06:57:04.545Z,55.1
2018-06-16T07:02:24.382Z,55.1
2018-06-16T07:07:05.173Z,55.2
2018-06-16T07:12:04.245Z,55.4
2018-06-16T07:17:23.435Z,55.5
2018-06-16T07:22:05.074Z,55.7
2018-06-16T07:27:04.862Z,55.6
2018-06-16T07:32:23.320Z,56.0
2018-06-16T07:37:05.231Z,56.1
2018-06-16T07:42:04.970Z,56.2
2018-06-16T07:47:22.815Z,56.0
2018-06-16T07:52:04.657Z,56.4
2018-06-16T07:57:04.504Z,55.9
2018-06-16T08:02:19.446Z,55.9
2018-06-16T08:07:04.947Z,56.1
2018-06-16T08:12:04.741Z,56.1
2018-06-16T08:17:23.303Z,56.1
2018-06-16T08:22:04.348Z,56.1
2018-06-16T08:27:04.423Z,56.1
2018-06-16T08:32:19.813Z,56.0
2018-06-16T08:37:04.481Z,56.9
2018-06-16T08:42:04.533Z,56.8
2018-06-16T08:47:23.955Z,56.8
2018-06-16T08:52:04.523Z,56.5
2018-06-16T08:57:04.410Z,57.1
2018-06-16T09:02:25.040Z,57.2
2018-06-16T09:07:05.202Z,57.0
2018-06-16T09:12:04.869Z,57.2
2018-06-16T09:17:23.937Z,57.2
2018-06-16T09:22:04.190Z,56.7
2018-06-16T09:27:04.715Z,56.7
2018-06-16T09:32:24.633Z,57.2
2018-06-16T09:37:04.609Z,57.0
2018-06-16T09:42:04.422Z,56.6
2018-06-16T09:47:22.773Z,56.9
2018-06-16T09:52:04.192Z,56.9
2018-06-16T09:57:04.731Z,56.8
2018-06-16T10:02:25.583Z,57.0
2018-06-16T10:07:04.849Z,57.3
2018-06-16T10:12:04.714Z,57.3
2018-06-16T10:17:25.786Z,57.2
2018-06-16T10:22:04.550Z,57.5
2018-06-16T10:27:04.415Z,57.4
2018-06-16T10:32:22.632Z,57.8
2018-06-16T10:37:04.399Z,57.5
2018-06-16T10:42:05.169Z,57.3
2018-06-16T10:47:34.393Z,57.4
2018-06-16T10:52:04.992Z,57.0
2018-06-16T10:57:05.042Z,57.0
2018-06-16T11:02:12.552Z,57.5
2018-06-16T11:07:04.900Z,57.2
2018-06-16T11:12:04.857Z,57.3
2018-06-16T11:17:22.752Z,57.3
2018-06-16T11:22:04.845Z,57.2
2018-06-16T11:27:04.967Z,57.8
2018-06-16T11:32:21.686Z,57.6
2018-06-16T11:37:04.666Z,57.2
2018-06-16T11:42:04.534Z,57.0
2018-06-16T11:47:21.452Z,57.0
2018-06-16T11:52:05.034Z,56.4
2018-06-16T11:57:05.151Z,56.0
2018-06-16T12:02:20.051Z,56.5
2018-06-16T12:07:04.568Z,56.5
2018-06-16T12:12:04.333Z,56.3
2018-06-16T12:17:21.305Z,56.3
2018-06-16T12:22:04.734Z,56.1
2018-06-16T12:27:04.614Z,56.1
2018-06-16T12:32:23.760Z,56.2
2018-06-16T12:37:04.548Z,55.7
2018-06-16T12:42:04.407Z,55.7
2018-06-16T12:47:24.085Z,56.0
2018-06-16T12:52:04.663Z,55.7
2018-06-16T12:57:04.463Z,55.7
2018-06-16T13:02:23.954Z,55.7
2018-06-16T13:07:05.102Z,55.4
2018-06-16T13:12:05.113Z,55.2
2018-06-16T13:17:24.021Z,55.8
2018-06-16T13:22:05.035Z,56.0
2018-06-16T13:27:04.609Z,56.0
2018-06-16T13:32:23.675Z,55.7
2018-06-16T13:37:04.554Z,55.9
2018-06-16T13:42:04.729Z,55.6
2018-06-16T13:47:29.640Z,55.6
2018-06-16T13:52:04.676Z,55.7
2018-06-16T13:57:04.335Z,55.7
2018-06-16T14:02:25.303Z,55.6
2018-06-16T14:07:05.121Z,55.3
2018-06-16T14:12:05.344Z,55.5
2018-06-16T14:17:20.235Z,55.8
2018-06-16T14:22:04.426Z,55.9
2018-06-16T14:27:05.117Z,55.5
2018-06-16T14:32:21.111Z,55.7
2018-06-16T14:37:05.146Z,55.5
2018-06-16T14:42:04.799Z,55.6
2018-06-16T14:47:19.509Z,55.4
2018-06-16T14:52:04.274Z,55.6
2018-06-16T14:57:04.768Z,55.5
2018-06-16T15:02:20.080Z,55.5
2018-06-16T15:07:05.211Z,55.9
2018-06-16T15:12:05.045Z,55.9
2018-06-16T15:17:21.917Z,55.7
2018-06-16T15:22:04.657Z,55.6
2018-06-16T15:27:05.237Z,55.5
2018-06-16T15:32:20.506Z,55.1
2018-06-16T15:37:04.960Z,55.3
2018-06-16T15:42:04.498Z,47.7
2018-06-16T15:47:19.925Z,47.7
2018-06-16T15:52:05.049Z,51.2
2018-06-16T15:57:04.701Z,52.7
2018-06-16T16:02:16.920Z,52.7
2018-06-16T16:07:04.798Z,47.3
2018-06-16T16:12:04.348Z,42.6
2018-06-16T16:17:15.125Z,39.2
2018-06-16T16:22:05.030Z,39.1
2018-06-16T16:27:04.514Z,44.2
2018-06-16T16:32:18.232Z,47.1
2018-06-16T16:37:04.615Z,51.8
2018-06-16T16:42:05.282Z,51.8
2018-06-16T16:47:20.952Z,42.2
2018-06-16T16:52:04.975Z,42.2
2018-06-16T16:57:04.259Z,46.1
2018-06-16T17:02:11.333Z,43.3
2018-06-16T17:07:04.695Z,43.2
2018-06-16T17:12:04.234Z,47.1
2018-06-16T17:17:20.525Z,49.4
2018-06-16T17:22:04.780Z,51.7
2018-06-16T17:27:05.144Z,52.9
2018-06-16T17:32:16.883Z,52.9
2018-06-16T17:37:04.337Z,52.2
2018-06-16T17:42:04.936Z,52.7
2018-06-16T17:47:21.914Z,53.9
2018-06-16T17:52:04.383Z,53.9
2018-06-16T17:57:04.937Z,54.3
2018-06-16T18:02:19.601Z,54.5
2018-06-16T18:07:05.229Z,54.9
2018-06-16T18:12:04.767Z,55.4
2018-06-16T18:17:21.718Z,55.1
2018-06-16T18:22:05.286Z,55.2
2018-06-16T18:27:04.766Z,55.4
2018-06-16T18:32:22.215Z,55.1
2018-06-16T18:37:05.218Z,55.4
2018-06-16T18:42:04.779Z,55.3
2018-06-16T18:47:19.848Z,55.4
2018-06-16T18:52:04.223Z,55.5
2018-06-16T18:57:04.529Z,55.4
2018-06-16T19:02:17.641Z,55.4
2018-06-16T19:07:04.290Z,55.4
2018-06-16T19:12:04.505Z,55.5
2018-06-16T19:17:17.327Z,55.7
2018-06-16T19:22:04.926Z,55.9
2018-06-16T19:27:05.154Z,56.2
2018-06-16T19:32:18.771Z,56.4
2018-06-16T19:37:04.395Z,56.6
2018-06-16T19:42:05.034Z,56.8
2018-06-16T19:47:18.335Z,56.9
2018-06-16T19:52:04.151Z,56.9
2018-06-16T19:57:04.578Z,57.0
2018-06-16T20:02:23.062Z,57.0
2018-06-16T20:07:04.968Z,57.1
2018-06-16T20:12:05.007Z,57.1
2018-06-16T20:17:11.251Z,57.2
2018-06-16T20:22:04.654Z,57.2
2018-06-16T20:27:05.215Z,57.2
2018-06-16T20:32:08.888Z,57.2
2018-06-16T20:37:04.691Z,57.2
2018-06-16T20:42:04.249Z,57.2
2018-06-16T20:47:04.810Z,57.2
2018-06-16T20:52:04.633Z,57.2
2018-06-16T20:57:04.805Z,57.2
2018-06-16T21:02:05.084Z,57.2
2018-06-16T21:07:04.859Z,57.1
2018-06-16T21:12:05.171Z,57.1
2018-06-16T21:17:05.364Z,57.1
2018-06-16T21:22:05.036Z,56.9
2018-06-16T21:27:05.121Z,56.8
2018-06-16T21:32:04.418Z,56.8
2018-06-16T21:37:04.742Z,56.8
2018-06-16T21:42:04.801Z,56.8
2018-06-16T21:47:04.560Z,56.8
2018-06-16T21:52:04.565Z,56.7
2018-06-16T21:57:04.772Z,56.7
2018-06-16T22:02:05.297Z,56.6
2018-06-16T22:07:05.183Z,56.5
2018-06-16T22:12:04.559Z,56.4
2018-06-16T22:22:17.003Z,56.3
2018-06-16T22:27:17.463Z,56.3
2018-06-16T22:32:17.577Z,56.4
2018-06-16T22:37:17.377Z,56.4
2018-06-16T22:42:17.163Z,56.1
2018-06-16T22:47:17.219Z,56.1
2018-06-16T22:52:16.856Z,56.1
2018-06-16T22:57:16.677Z,56.1
2018-06-16T23:02:17.121Z,56.2
2018-06-16T23:07:17.368Z,56.1
2018-06-16T23:12:04.855Z,56.0
2018-06-16T23:17:04.702Z,56.0
2018-06-16T23:22:04.276Z,55.9
2018-06-16T23:27:04.862Z,55.8
2018-06-16T23:32:04.849Z,55.8
2018-06-16T23:37:04.308Z,55.9
2018-06-16T23:42:04.833Z,55.8
2018-06-16T23:47:04.795Z,56.0
2018-06-16T23:52:04.744Z,55.9
2018-06-16T23:57:04.597Z,55.9
